Time;durP1;ratioP1;P1;durP2;ratioP2;P2;SDS_P1;SDS_P2;PMS_P1;PMS_P2;Temp;Humidity;BMP_temperature;BMP_pressure;BME280_temperature;BME280_humidity;BME280_pressure;Samples;Min_cycle;Max_cycle;Signal;HPM_P1;HPM_P2
2023/02/08 00:01:28;;;;;;;10.57;6.80;;;3.80;71.30;;;;;;4924541;28;20460;-81
2023/02/08 00:04:02;;;;;;;7.93;6.90;;;3.70;71.00;;;;;;4947378;28;20504;-81
2023/02/08 00:06:42;;;;;;;7.53;6.37;;;3.60;71.20;;;;;;4938400;28;20457;-82
2023/02/08 00:09:23;;;;;;;8.63;6.73;;;3.60;71.60;;;;;;5001942;28;21193;-81
2023/02/08 00:12:15;;;;;;;11.63;6.80;;;3.60;71.90;;;;;;5018232;28;21634;-81
2023/02/08 00:15:19;;;;;;;9.63;6.43;;;3.60;72.00;;;;;;4997068;28;20516;-81
2023/02/08 00:18:21;;;;;;;9.27;7.17;;;3.50;72.50;;;;;;5017886;28;20453;-82
2023/02/08 00:21:23;;;;;;;10.33;6.87;;;3.30;72.80;;;;;;5020292;28;20448;-82
2023/02/08 00:35:03;;;;;;;7.27;5.37;;;3.30;74.40;;;;;;5190292;22;20476;-79
2023/02/08 00:37:37;;;;;;;9.20;6.83;;;3.40;74.30;;;;;;5042272;28;20438;-81
2023/02/08 00:40:11;;;;;;;8.57;6.37;;;3.30;74.30;;;;;;5043463;28;20449;-80
2023/02/08 00:42:40;;;;;;;7.87;6.70;;;3.20;74.50;;;;;;5024731;28;20449;-80
2023/02/08 00:45:26;;;;;;;8.77;6.90;;;3.10;75.20;;;;;;4995035;28;20450;-80
2023/02/08 00:48:32;;;;;;;10.10;7.33;;;3.00;76.00;;;;;;4989491;28;21115;-83
2023/02/08 00:51:14;;;;;;;12.57;7.13;;;3.00;77.10;;;;;;4997814;28;20502;-81
2023/02/08 00:54:20;;;;;;;9.37;6.10;;;3.00;77.10;;;;;;4999132;28;20441;-82
2023/02/08 00:57:19;;;;;;;;;;;;;;;;;;;;;
2023/02/08 01:00:02;;;;;;;11.07;7.73;;;3.10;76.90;;;;;;4998359;28;20466;-80
2023/02/08 01:02:33;;;;;;;8.53;7.30;;;3.00;76.90;;;;;;4999825;28;20481;-83
2023/02/08 01:05:02;;;;;;;13.60;7.67;;;3.00;77.90;;;;;;5002134;28;20532;-82
2023/02/08 01:07:32;;;;;;;9.43;7.50;;;3.00;78.30;;;;;;5006304;28;20481;-80
2023/02/08 01:10:11;;;;;;;7.43;6.67;;;2.90;79.00;;;;;;5007813;28;20479;-79
2023/02/08 01:12:49;;;;;;;10.10;7.13;;;3.10;79.10;;;;;;5013328;28;20450;-80
2023/02/08 01:15:36;;;;;;;7.83;6.27;;;2.90;79.00;;;;;;5012142;28;20431;-80
2023/02/08 01:18:08;;;;;;;9.13;7.67;;;2.80;79.50;;;;;;5024148;28;20450;-80
2023/02/08 01:21:26;;;;;;;11.20;7.47;;;2.80;80.30;;;;;;5005518;28;20450;-79
2023/02/08 01:24:18;;;;;;;9.67;7.67;;;2.90;80.00;;;;;;4981438;28;20483;-80
2023/02/08 01:27:14;;;;;;;9.47;7.60;;;2.80;80.30;;;;;;4997276;28;20743;-80
2023/02/08 01:30:59;;;;;;;12.97;7.87;;;3.10;82.10;;;;;;4953654;28;20486;-80
2023/02/08 01:34:13;;;;;;;9.30;6.70;;;3.10;81.40;;;;;;4986819;28;20568;-81
2023/02/08 01:36:42;;;;;;;13.10;6.90;;;2.80;82.00;;;;;;5000276;28;20454;-80
2023/02/08 01:39:13;;;;;;;8.97;8.07;;;2.80;83.20;;;;;;4982431;28;20452;-83
2023/02/08 01:42:09;;;;;;;12.17;7.10;;;2.90;83.90;;;;;;4992555;28;21079;-80
2023/02/08 01:45:22;;;;;;;9.30;7.43;;;3.00;83.70;;;;;;5005540;28;20609;-81
2023/02/08 01:48:35;;;;;;;13.43;7.00;;;2.90;83.40;;;;;;4990004;28;20609;-80
2023/02/08 01:51:37;;;;;;;12.33;7.43;;;2.80;83.80;;;;;;4989833;28;20544;-81
2023/02/08 01:57:33;;;;;;;8.73;7.23;;;3.00;83.20;;;;;;4989365;28;20449;-81
2023/02/08 02:00:32;;;;;;;10.73;7.90;;;2.90;82.70;;;;;;4985786;28;20517;-80
2023/02/08 02:03:30;;;;;;;9.40;7.20;;;3.00;82.00;;;;;;4973863;28;20497;-82
2023/02/08 02:07:01;;;;;;;10.37;7.27;;;2.80;82.00;;;;;;4976516;28;20427;-81
2023/02/08 02:10:07;;;;;;;9.73;7.20;;;2.60;83.10;;;;;;4978481;28;20590;-81
2023/02/08 02:12:57;;;;;;;9.83;8.00;;;2.80;84.30;;;;;;4982375;28;20458;-81
2023/02/08 02:15:41;;;;;;;10.30;7.23;;;2.90;83.70;;;;;;4988656;28;20474;-81
2023/02/08 02:18:19;;;;;;;8.50;7.03;;;2.80;84.20;;;;;;4981201;28;20478;-82
2023/02/08 02:21:30;;;;;;;12.57;8.33;;;2.90;84.20;;;;;;4924713;28;21345;-82
2023/02/08 02:24:27;;;;;;;13.13;8.50;;;2.80;83.90;;;;;;4940849;28;20556;-81
2023/02/08 02:27:45;;;;;;;11.30;7.97;;;2.80;84.30;;;;;;4932334;28;20455;-81
2023/02/08 02:30:41;;;;;;;14.33;8.57;;;2.90;83.90;;;;;;4925872;28;20487;-81
2023/02/08 02:33:52;;;;;;;11.67;7.87;;;2.90;83.40;;;;;;4915802;28;21174;-80
2023/02/08 02:37:23;;;;;;;9.30;6.97;;;2.60;83.90;;;;;;4935577;28;20601;-81
2023/02/08 02:40:12;;;;;;;10.63;7.67;;;2.50;85.10;;;;;;4940547;28;20457;-81
2023/02/08 02:43:47;;;;;;;12.10;8.53;;;2.50;85.80;;;;;;4965828;22;20505;-81
2023/02/08 02:47:00;;;;;;;10.37;7.37;;;2.80;85.50;;;;;;5012118;28;20464;-81
2023/02/08 02:50:29;;;;;;;9.57;7.87;;;2.70;84.70;;;;;;5002774;28;21023;-81
2023/02/08 02:56:59;;;;;;;11.40;8.37;;;2.80;84.10;;;;;;5009918;28;20442;-81
2023/02/08 02:59:49;;;;;;;;;;;;;;;;;;;;;
2023/02/08 03:02:48;;;;;;;10.83;8.47;;;2.70;85.90;;;;;;4994501;28;20497;-81
2023/02/08 03:05:39;;;;;;;10.80;7.67;;;2.70;85.90;;;;;;5008219;28;20424;-79
2023/02/08 03:09:00;;;;;;;8.50;7.00;;;2.50;86.30;;;;;;5023369;28;20476;-80
2023/02/08 03:12:20;;;;;;;8.77;7.73;;;2.60;87.00;;;;;;5001906;28;20488;-81
2023/02/08 03:15:30;;;;;;;9.80;8.00;;;2.60;86.90;;;;;;4988588;28;20569;-80
2023/02/08 03:18:31;;;;;;;15.33;7.30;;;2.40;87.10;;;;;;5004417;28;20450;-80
2023/02/08 03:21:22;;;;;;;9.63;7.40;;;2.30;87.70;;;;;;5006035;28;20505;-81
2023/02/08 03:24:18;;;;;;;9.00;7.80;;;2.30;88.00;;;;;;5019499;28;20507;-80
2023/02/08 03:27:43;;;;;;;8.50;7.60;;;2.40;87.90;;;;;;5000406;28;20447;-80
2023/02/08 03:30:44;;;;;;;9.60;7.70;;;2.20;88.20;;;;;;4970511;28;20479;-80
2023/02/08 03:33:50;;;;;;;10.33;7.73;;;2.20;88.90;;;;;;4960612;28;20497;-80
2023/02/08 03:37:08;;;;;;;9.80;8.13;;;2.40;89.10;;;;;;5005396;28;20450;-80
2023/02/08 03:39:47;;;;;;;12.13;8.60;;;2.60;88.60;;;;;;4984335;28;20455;-80
2023/02/08 03:42:33;;;;;;;9.80;7.37;;;2.50;88.20;;;;;;5019900;28;20477;-80
2023/02/08 03:45:44;;;;;;;11.33;7.30;;;2.60;87.80;;;;;;5000798;28;20892;-80
2023/02/08 03:48:33;;;;;;;10.60;7.60;;;2.50;87.80;;;;;;5001299;28;20459;-81
2023/02/08 03:51:09;;;;;;;11.73;8.77;;;2.50;88.20;;;;;;5021728;28;20470;-80
2023/02/08 03:53:45;;;;;;;11.90;8.90;;;2.30;89.00;;;;;;5024329;28;20465;-80
2023/02/08 03:56:51;;;;;;;;;;;;;;;;;;;;;
2023/02/08 04:00:03;;;;;;;9.13;7.67;;;2.50;89.50;;;;;;5000837;28;20443;-79
2023/02/08 04:02:47;;;;;;;10.63;7.70;;;2.40;89.50;;;;;;4983694;28;20467;-80
2023/02/08 04:05:33;;;;;;;11.00;7.50;;;2.40;90.10;;;;;;4990522;28;20516;-80
2023/02/08 04:08:23;;;;;;;10.67;7.53;;;2.20;90.30;;;;;;4984656;28;20443;-80
2023/02/08 04:11:00;;;;;;;11.50;8.10;;;2.20;90.80;;;;;;4980438;28;20493;-80
2023/02/08 04:13:48;;;;;;;;;;;;;;;;;;;;;
2023/02/08 04:16:32;;;;;;;9.13;6.67;;;2.20;91.00;;;;;;4967902;28;20490;-81
2023/02/08 04:22:33;;;;;;;10.67;7.90;;;2.10;91.10;;;;;;4976419;28;20432;-81
2023/02/08 04:25:26;;;;;;;10.83;8.30;;;2.00;91.30;;;;;;4992350;28;20491;-82
2023/02/08 04:28:02;;;;;;;9.37;7.23;;;2.10;91.60;;;;;;4984435;28;20864;-82
2023/02/08 04:30:49;;;;;;;10.60;8.50;;;2.10;91.50;;;;;;4976627;28;20514;-80
2023/02/08 04:34:06;;;;;;;10.03;7.50;;;2.20;91.40;;;;;;4966902;28;20465;-79
2023/02/08 04:37:01;;;;;;;11.63;7.47;;;2.20;91.10;;;;;;4965702;28;20858;-81
2023/02/08 04:39:59;;;;;;;;;;;;;;;;;;;;;
2023/02/08 04:42:51;;;;;;;11.10;7.90;;;2.10;91.40;;;;;;4969242;28;20491;-81
2023/02/08 04:46:24;;;;;;;6.87;6.17;;;2.20;91.40;;;;;;4939285;28;20448;-81
2023/02/08 04:49:34;;;;;;;11.90;7.70;;;2.30;91.10;;;;;;4948279;28;20940;-81
2023/02/08 04:52:40;;;;;;;9.20;7.10;;;2.20;91.00;;;;;;4955327;28;20513;-81
2023/02/08 04:55:20;;;;;;;12.10;7.67;;;2.10;91.10;;;;;;4961002;28;20474;-80
2023/02/08 04:58:08;;;;;;;9.27;7.70;;;2.10;91.10;;;;;;4962213;28;20643;-81
2023/02/08 05:01:19;;;;;;;9.50;6.93;;;2.10;91.20;;;;;;4977010;28;20577;-81
2023/02/08 05:04:26;;;;;;;10.03;7.10;;;2.20;91.30;;;;;;4956721;28;20526;-80
2023/02/08 05:07:25;;;;;;;;;;;;;;;;;;;;;
2023/02/08 05:10:18;;;;;;;12.10;7.67;;;2.30;91.50;;;;;;4849720;29;20437;-81
2023/02/08 05:13:09;;;;;;;13.83;7.50;;;2.30;91.40;;;;;;4859413;29;20505;-81
2023/02/08 05:16:11;;;;;;;10.03;7.80;;;2.20;91.20;;;;;;4869513;29;20509;-81
2023/02/08 05:19:05;;;;;;;8.80;7.83;;;2.10;91.20;;;;;;4842799;29;20469;-80
2023/02/08 05:22:22;;;;;;;;;;;;;;;;;;;;;
2023/02/08 05:25:41;;;;;;;;;;;;;;;;;;;;;
2023/02/08 05:28:47;;;;;;;13.20;9.20;;;1.90;90.50;;;;;;4845051;29;22371;-81
2023/02/08 05:31:45;;;;;;;11.43;8.00;;;2.00;90.60;;;;;;4858922;29;20524;-81
2023/02/08 05:34:40;;;;;;;12.50;8.07;;;2.10;90.50;;;;;;4845979;29;21588;-81
2023/02/08 05:37:42;;;;;;;10.97;7.43;;;2.10;90.40;;;;;;4872189;29;20457;-81
2023/02/08 05:40:37;;;;;;;11.63;7.50;;;1.80;90.50;;;;;;4908627;29;20560;-79
2023/02/08 05:43:23;;;;;;;10.20;7.67;;;1.80;90.90;;;;;;4849725;29;20616;-82
2023/02/08 05:46:18;;;;;;;10.17;7.10;;;1.80;91.00;;;;;;4847728;29;20473;-80
2023/02/08 05:49:47;;;;;;;9.30;6.30;;;1.80;91.50;;;;;;4889362;29;20454;-81
2023/02/08 05:55:48;;;;;;;10.90;7.13;;;1.50;91.30;;;;;;4889092;29;20507;-82
2023/02/08 05:58:36;;;;;;;;;;;;;;;;;;;;;
2023/02/08 06:01:41;;;;;;;14.20;7.10;;;1.70;91.60;;;;;;4887963;29;20460;-81
2023/02/08 06:07:51;;;;;;;8.10;6.30;;;2.00;90.20;;;;;;4895953;29;20472;-81
2023/02/08 06:10:42;;;;;;;11.10;7.50;;;1.90;89.20;;;;;;4886423;29;20458;-83
2023/02/08 06:14:20;;;;;;;11.90;6.77;;;1.80;89.60;;;;;;5019746;27;20627;-80
2023/02/08 06:17:02;;;;;;;18.40;8.07;;;1.90;89.50;;;;;;4983974;28;20463;-82
2023/02/08 06:19:49;;;;;;;13.80;7.40;;;1.90;88.40;;;;;;4923856;29;20775;-79
2023/02/08 06:22:40;;;;;;;12.47;7.20;;;1.90;88.80;;;;;;4837250;29;20462;-81
2023/02/08 06:26:04;;;;;;;17.87;7.10;;;1.80;88.70;;;;;;4865713;29;20539;-80
2023/02/08 06:28:49;;;;;;;8.63;5.70;;;1.80;89.00;;;;;;4855309;29;20952;-80
2023/02/08 06:31:52;;;;;;;12.17;6.80;;;1.80;88.60;;;;;;4843441;29;20441;-83
2023/02/08 06:34:52;;;;;;;10.70;7.33;;;1.80;88.30;;;;;;4870309;29;21180;-82
2023/02/08 06:37:59;;;;;;;11.57;6.50;;;1.80;88.70;;;;;;4863300;29;20608;-81
2023/02/08 06:41:04;;;;;;;;;;;;;;;;;;;;;
2023/02/08 06:44:10;;;;;;;9.97;6.57;;;1.70;88.60;;;;;;4890000;29;20608;-81
2023/02/08 06:47:35;;;;;;;13.80;6.07;;;1.70;88.70;;;;;;4933983;29;20438;-82
2023/02/08 06:50:23;;;;;;;9.20;6.67;;;1.90;87.40;;;;;;4942658;29;20468;-82
2023/02/08 06:53:04;;;;;;;8.00;5.47;;;1.80;87.40;;;;;;4965941;23;20487;-81
2023/02/08 06:56:09;;;;;;;10.10;6.27;;;1.70;87.30;;;;;;4993634;28;20443;-80
2023/02/08 06:59:09;;;;;;;10.37;6.13;;;1.90;87.60;;;;;;4996522;28;20451;-80
2023/02/08 07:02:30;;;;;;;8.60;6.23;;;2.20;86.60;;;;;;4903069;29;21106;-81
2023/02/08 07:09:59;;;;;;;;;;;;;;;;;;;;;
2023/02/08 07:13:25;;;;;;;7.70;5.10;;;2.30;86.50;;;;;;4880587;29;20497;-81
2023/02/08 07:16:18;;;;;;;7.27;5.57;;;2.40;85.40;;;;;;4892208;29;21079;-81
2023/02/08 07:20:16;;;;;;;8.40;6.43;;;2.30;84.80;;;;;;4887284;29;20434;-81
2023/02/08 07:22:59;;;;;;;14.97;6.80;;;2.20;84.90;;;;;;4940561;23;20501;-80
2023/02/08 07:26:04;;;;;;;10.23;5.80;;;3.40;85.90;;;;;;4902238;29;20470;-83
2023/02/08 07:29:41;;;;;;;7.43;5.37;;;5.20;80.20;;;;;;4902498;29;20486;-82
2023/02/08 07:33:02;;;;;;;7.60;6.10;;;5.70;71.30;;;;;;4888864;29;20480;-81
2023/02/08 07:36:04;;;;;;;10.87;6.37;;;4.70;69.60;;;;;;4888223;29;20459;-81
2023/02/08 07:59:14;;;;;;;;;;;;;;;;;;;;;
2023/02/08 08:06:00;;;;;;;6.87;5.90;;;4.40;72.40;;;;;;4910729;29;20813;-82
2023/02/08 08:09:20;;;;;;;;;;;;;;;;;;;;;
2023/02/08 08:12:42;;;;;;;6.23;4.93;;;3.10;76.90;;;;;;4907009;29;20614;-81
2023/02/08 08:15:19;;;;;;;9.07;5.87;;;2.90;78.90;;;;;;4916967;29;20461;-79
2023/02/08 08:18:50;;;;;;;12.43;6.33;;;2.80;78.40;;;;;;4871951;29;20424;-81
2023/02/08 08:21:44;;;;;;;10.20;6.10;;;2.70;78.00;;;;;;4889221;29;20443;-80
2023/02/08 08:28:02;;;;;;;10.40;6.20;;;2.70;79.20;;;;;;4907452;29;20454;-81
2023/02/08 08:31:04;;;;;;;;;;;;;;;;;;;;;
2023/02/08 08:34:04;;;;;;;5.70;4.80;;;2.80;78.00;;;;;;4836826;29;20466;-79
2023/02/08 08:52:06;;;;;;;10.90;5.67;;;3.10;77.40;;;;;;4882917;29;20797;-81
2023/02/08 08:59:33;;;;;;;8.40;6.40;;;3.30;76.40;;;;;;4866794;29;20508;-83
2023/02/08 09:06:18;;;;;;;9.20;6.00;;;3.40;75.80;;;;;;4827819;29;20453;-82
2023/02/08 09:09:24;;;;;;;8.50;6.90;;;3.40;76.10;;;;;;4863127;29;20489;-81
2023/02/08 09:12:19;;;;;;;9.43;5.50;;;3.40;75.70;;;;;;4854685;29;21198;-81
2023/02/08 09:18:06;;;;;;;10.57;5.53;;;3.60;73.00;;;;;;4954736;28;20463;-80
2023/02/08 09:22:00;;;;;;;;;;;;;;;;;;;;;
2023/02/08 09:32:47;;;;;;;7.40;5.90;;;3.80;68.90;;;;;;4852785;29;20531;-80
2023/02/08 09:36:00;;;;;;;6.87;5.67;;;3.80;69.60;;;;;;4812090;29;20476;-81
2023/02/08 09:43:45;;;;;;;6.67;5.33;;;4.00;68.90;;;;;;4830867;29;20481;-80
2023/02/08 10:08:16;;;;;;;8.63;6.30;;;7.40;56.80;;;;;;4901626;29;20478;-81
2023/02/08 10:20:00;;;;;;;;;;;;;;;;;;;;;
2023/02/08 10:27:31;;;;;;;;;;;;;;;;;;;;;
2023/02/08 10:38:35;;;;;;;7.70;6.40;;;7.30;49.50;;;;;;4939520;28;20480;-83
2023/02/08 10:49:21;;;;;;;;;;;;;;;;;;;;;
2023/02/08 10:55:54;;;;;;;5.40;3.97;;;6.60;52.70;;;;;;4804841;29;20926;-82
2023/02/08 11:16:24;;;;;;;4.57;4.10;;;6.70;49.90;;;;;;4974592;28;20478;-81
2023/02/08 11:20:10;;;;;;;5.33;4.50;;;6.90;49.60;;;;;;4981810;28;20935;-81
2023/02/08 11:23:55;;;;;;;;;;;;;;;;;;;;;
2023/02/08 11:35:48;;;;;;;6.13;4.80;;;7.10;49.20;;;;;;4899244;29;21103;-81
2023/02/08 11:38:44;;;;;;;5.47;4.80;;;7.00;48.70;;;;;;4958931;28;20455;-81
2023/02/08 11:42:19;;;;;;;7.17;4.87;;;7.30;48.20;;;;;;4986904;28;20473;-80
2023/02/08 11:45:47;;;;;;;6.50;4.37;;;7.60;47.80;;;;;;4988733;28;20476;-80
2023/02/08 12:10:49;;;;;;;14.33;9.07;;;7.80;44.90;;;;;;4886206;29;20487;-80
2023/02/08 12:14:15;;;;;;;4.37;3.40;;;7.70;44.80;;;;;;4827729;29;20505;-78
2023/02/08 12:17:57;;;;;;;;;;;;;;;;;;;;;
2023/02/08 12:21:38;;;;;;;;;;;;;;;;;;;;;
2023/02/08 12:29:32;;;;;;;;;;;;;;;;;;;;;
2023/02/08 12:47:40;;;;;;;5.30;3.23;;;7.80;42.50;;;;;;4876766;29;20460;-80
2023/02/08 12:51:15;;;;;;;;;;;;;;;;;;;;;
2023/02/08 12:54:40;;;;;;;4.83;3.27;;;8.10;41.00;;;;;;4860773;29;20557;-80
2023/02/08 12:57:28;;;;;;;4.07;3.20;;;8.20;40.90;;;;;;4892219;29;20482;-80
2023/02/08 13:00:51;;;;;;;4.70;3.40;;;8.20;41.10;;;;;;4868668;29;20457;-78
2023/02/08 13:03:46;;;;;;;3.93;3.30;;;8.30;40.90;;;;;;5027008;23;21171;-79
2023/02/08 13:07:30;;;;;;;2.60;2.40;;;8.50;41.30;;;;;;4970217;28;20440;-79
2023/02/08 13:14:20;;;;;;;4.73;3.30;;;8.50;39.60;;;;;;4979046;28;20470;-78
2023/02/08 13:17:34;;;;;;;4.87;3.17;;;8.60;40.00;;;;;;4968323;28;20450;-79
2023/02/08 13:20:31;;;;;;;6.53;3.67;;;8.50;40.90;;;;;;4967393;28;20888;-82
2023/02/08 13:24:34;;;;;;;3.60;2.60;;;8.60;41.10;;;;;;4965041;28;20552;-82
2023/02/08 13:27:39;;;;;;;3.13;2.60;;;8.80;40.70;;;;;;4914263;29;20602;-79
2023/02/08 13:31:34;;;;;;;5.03;2.47;;;8.80;39.30;;;;;;4877615;29;20440;-80
2023/02/08 13:35:27;;;;;;;3.27;2.53;;;8.80;39.00;;;;;;4957863;23;20535;-81
2023/02/08 13:39:12;;;;;;;3.00;2.30;;;8.60;38.00;;;;;;4892803;29;20450;-81
2023/02/08 13:42:47;;;;;;;8.50;2.77;;;8.60;38.10;;;;;;4873237;29;20451;-81
2023/02/08 13:53:16;;;;;;;;;;;;;;;;;;;;;
2023/02/08 13:56:44;;;;;;;3.00;2.20;;;8.70;39.20;;;;;;4868157;29;21008;-82
2023/02/08 14:20:55;;;;;;;3.13;2.70;;;8.70;39.40;;;;;;1340642;26;20825;-80
2023/02/08 14:26:41;;;;;;;3.63;2.23;;;8.80;40.10;;;;;;5124553;23;20492;-79
2023/02/08 14:29:43;;;;;;;3.77;2.50;;;9.00;39.50;;;;;;4963667;28;20459;-81
2023/02/08 14:35:24;;;;;;;2.90;2.57;;;9.00;39.10;;;;;;4868879;29;20503;-81
2023/02/08 14:38:46;;;;;;;3.10;2.30;;;8.80;39.10;;;;;;4869146;29;20596;-81
2023/02/08 14:45:36;;;;;;;1.63;1.53;;;9.00;38.50;;;;;;4845558;29;20481;-80
2023/02/08 14:48:35;;;;;;;1.93;1.70;;;9.00;38.50;;;;;;4861279;29;20480;-81
2023/02/08 14:55:05;;;;;;;1.93;1.80;;;8.90;39.10;;;;;;4852381;29;20945;-82
2023/02/08 14:57:49;;;;;;;2.90;1.90;;;8.80;38.80;;;;;;4876246;29;20505;-81
2023/02/08 15:00:45;;;;;;;1.90;1.70;;;8.90;38.20;;;;;;4865559;29;20468;-79
2023/02/08 15:07:21;;;;;;;4.00;2.40;;;8.60;38.30;;;;;;4853299;29;20537;-80
2023/02/08 15:10:05;;;;;;;;;;;;;;;;;;;;;
2023/02/08 15:17:11;;;;;;;2.10;1.80;;;8.60;38.00;;;;;;4950079;28;20539;-79
2023/02/08 15:20:24;;;;;;;3.03;1.37;;;8.60;38.10;;;;;;4940223;28;20447;-80
2023/02/08 15:23:39;;;;;;;2.93;1.83;;;8.70;38.00;;;;;;4881091;29;20551;-81
2023/02/08 15:26:48;;;;;;;3.20;2.17;;;8.60;37.60;;;;;;4881134;29;20460;-80
2023/02/08 15:29:45;;;;;;;2.10;1.60;;;8.60;38.00;;;;;;4881205;29;20463;-79
2023/02/08 15:32:29;;;;;;;2.83;1.70;;;8.60;37.80;;;;;;4868608;29;20443;-81
2023/02/08 15:39:26;;;;;;;1.90;1.70;;;8.50;37.60;;;;;;4860363;29;20544;-81
2023/02/08 15:42:25;;;;;;;2.00;1.70;;;8.50;37.90;;;;;;4857791;29;20467;-80
2023/02/08 15:45:32;;;;;;;2.30;2.10;;;8.50;37.90;;;;;;4879596;29;20572;-80
2023/02/08 15:48:16;;;;;;;5.00;2.10;;;8.20;38.10;;;;;;4852787;29;20456;-82
2023/02/08 15:51:26;;;;;;;1.93;1.73;;;8.30;38.40;;;;;;4874384;29;20476;-82
2023/02/08 15:55:06;;;;;;;2.20;2.00;;;8.40;38.70;;;;;;4900914;28;20547;-81
2023/02/08 15:58:11;;;;;;;;;;;;;;;;;;;;;
2023/02/08 16:01:32;;;;;;;2.33;1.93;;;8.30;38.70;;;;;;4939484;28;20469;-80
2023/02/08 16:04:20;;;;;;;2.50;2.10;;;8.30;38.90;;;;;;4940094;28;20472;-81
2023/02/08 16:07:32;;;;;;;2.20;1.80;;;8.20;38.80;;;;;;4937550;28;20467;-81
2023/02/08 16:10:41;;;;;;;2.33;1.90;;;8.20;38.40;;;;;;4933609;28;20515;-82
2023/02/08 16:13:34;;;;;;;2.53;2.33;;;8.10;38.40;;;;;;4930482;28;20508;-80
2023/02/08 16:16:36;;;;;;;3.53;2.60;;;8.10;39.00;;;;;;4938824;28;20452;-81
2023/02/08 16:19:31;;;;;;;2.50;2.30;;;8.00;39.10;;;;;;4937260;28;20473;-80
2023/02/08 16:22:21;;;;;;;2.70;2.43;;;7.80;39.90;;;;;;4946975;28;20461;-79
2023/02/08 16:24:51;;;;;;;3.60;2.60;;;7.60;40.00;;;;;;4964456;28;20564;-80
2023/02/08 16:27:46;;;;;;;2.87;2.20;;;7.50;40.30;;;;;;4945893;28;20465;-80
2023/02/08 16:30:44;;;;;;;2.43;2.23;;;7.50;40.90;;;;;;4919986;29;20450;-82
2023/02/08 16:33:39;;;;;;;3.20;2.30;;;7.60;40.20;;;;;;4839596;29;20513;-82
2023/02/08 16:37:12;;;;;;;3.60;2.27;;;7.80;40.20;;;;;;4828761;29;20927;-81
2023/02/08 16:40:48;;;;;;;4.10;2.70;;;8.00;40.20;;;;;;4836969;29;20548;-81
2023/02/08 16:51:49;;;;;;;5.20;3.13;;;7.80;40.90;;;;;;4808001;29;21068;-81
2023/02/08 16:55:31;;;;;;;4.53;2.87;;;7.60;41.20;;;;;;4795408;29;20510;-81
2023/02/08 16:58:34;;;;;;;8.77;3.37;;;7.30;41.90;;;;;;4763960;29;20595;-81
2023/02/08 17:01:27;;;;;;;4.13;3.47;;;7.50;42.30;;;;;;4772913;29;20528;-80
2023/02/08 17:04:20;;;;;;;4.97;3.63;;;7.50;42.50;;;;;;4785693;29;20925;-81
2023/02/08 17:06:55;;;;;;;3.80;3.50;;;7.40;42.60;;;;;;4796196;29;20468;-81
2023/02/08 17:09:42;;;;;;;5.47;3.23;;;7.30;43.10;;;;;;4800614;29;20465;-81
2023/02/08 17:12:41;;;;;;;4.90;3.40;;;7.40;43.40;;;;;;4794293;29;20473;-81
2023/02/08 17:18:44;;;;;;;4.70;3.40;;;7.20;44.10;;;;;;4769146;29;20471;-82
2023/02/08 17:21:38;;;;;;;4.60;3.77;;;7.20;44.40;;;;;;4782488;29;20509;-83
2023/02/08 17:28:25;;;;;;;5.93;4.07;;;6.90;45.00;;;;;;4777442;29;21103;-81
2023/02/08 17:32:16;;;;;;;;;;;;;;;;;;;;;
2023/02/08 17:35:32;;;;;;;4.83;4.03;;;7.00;45.60;;;;;;4779319;29;20497;-81
2023/02/08 17:38:55;;;;;;;6.77;3.57;;;7.00;45.60;;;;;;4756841;29;20477;-81
2023/02/08 17:42:02;;;;;;;7.10;4.17;;;6.90;46.00;;;;;;4832940;29;20497;-82
2023/02/08 17:44:48;;;;;;;6.67;4.00;;;6.80;46.50;;;;;;4968034;23;20565;-82
2023/02/08 17:48:22;;;;;;;;;;;;;;;;;;;;;
2023/02/08 17:51:22;;;;;;;5.77;4.60;;;6.40;47.10;;;;;;4964257;28;20518;-80
2023/02/08 17:54:39;;;;;;;;;;;;;;;;;;;;;
2023/02/08 18:01:35;;;;;;;;;;;;;;;;;;;;;
2023/02/08 18:07:20;;;;;;;6.93;5.50;;;6.70;47.80;;;;;;3129258;26;20475;-82
2023/02/08 18:10:59;;;;;;;5.53;4.53;;;6.50;48.30;;;;;;4970554;28;20939;-81
2023/02/08 18:14:11;;;;;;;7.57;5.00;;;6.60;48.30;;;;;;4959396;23;20519;-81
2023/02/08 18:16:44;;;;;;;6.60;3.70;;;6.40;48.40;;;;;;4947502;28;20460;-82
2023/02/08 18:19:43;;;;;;;7.30;5.20;;;6.40;48.50;;;;;;4963058;28;20465;-82
2023/02/08 18:22:48;;;;;;;7.07;5.07;;;6.30;48.40;;;;;;4942856;28;20465;-83
2023/02/08 18:25:33;;;;;;;5.10;3.90;;;6.20;48.50;;;;;;4940746;28;20477;-82
2023/02/08 18:28:40;;;;;;;8.00;4.77;;;6.30;48.90;;;;;;4955263;28;20474;-81
2023/02/08 18:31:27;;;;;;;7.90;5.50;;;6.40;48.60;;;;;;4936133;28;21017;-82
2023/02/08 18:34:20;;;;;;;5.23;3.80;;;6.40;48.50;;;;;;4974857;23;21207;-82
2023/02/08 18:37:35;;;;;;;5.13;4.63;;;6.40;48.60;;;;;;4942780;28;20464;-83
2023/02/08 18:44:02;;;;;;;5.87;4.80;;;6.20;49.30;;;;;;4914556;29;20503;-82
2023/02/08 18:47:58;;;;;;;9.00;5.23;;;6.10;49.60;;;;;;4969194;28;20604;-82
2023/02/08 18:50:32;;;;;;;8.37;5.93;;;6.20;49.60;;;;;;4920726;29;20948;-82
2023/02/08 18:53:38;;;;;;;5.40;4.60;;;6.10;50.10;;;;;;4924877;28;20537;-82
2023/02/08 18:56:35;;;;;;;8.30;5.60;;;5.80;50.50;;;;;;4913841;28;20469;-81
2023/02/08 18:59:30;;;;;;;7.80;5.40;;;5.70;51.10;;;;;;4928901;28;20449;-82
2023/02/08 19:05:49;;;;;;;;;;;;;;;;;;;;;
2023/02/08 19:09:00;;;;;;;7.00;5.03;;;5.90;50.30;;;;;;4925502;28;20465;-83
2023/02/08 19:14:56;;;;;;;10.33;5.63;;;5.70;50.40;;;;;;5296833;23;20555;-80
2023/02/08 19:17:58;;;;;;;9.43;4.30;;;5.70;50.80;;;;;;4984763;28;20431;-79
2023/02/08 19:21:01;;;;;;;6.80;5.57;;;5.70;50.90;;;;;;4986695;28;20418;-82
2023/02/08 19:29:25;;;;;;;6.13;4.57;;;5.50;51.60;;;;;;4983424;28;20538;-83
2023/02/08 19:35:20;;;;;;;8.27;4.90;;;5.30;51.90;;;;;;4963555;23;20487;-81
2023/02/08 19:38:25;;;;;;;7.13;4.63;;;5.40;52.10;;;;;;4952412;28;20457;-82
2023/02/08 19:42:00;;;;;;;5.40;4.40;;;5.30;52.00;;;;;;4956174;28;21251;-83
2023/02/08 19:47:13;;;;;;;8.03;5.57;;;5.10;52.30;;;;;;5003454;28;20471;-81
2023/02/08 19:50:27;;;;;;;6.67;4.50;;;5.00;52.70;;;;;;5006080;28;21616;-80
2023/02/08 19:53:26;;;;;;;9.57;5.30;;;5.10;52.90;;;;;;4964265;28;20507;-81
2023/02/08 20:00:00;;;;;;;7.37;5.00;;;5.00;52.60;;;;;;4974406;28;20679;-81
2023/02/08 20:03:18;;;;;;;8.37;5.80;;;5.00;52.60;;;;;;4984615;28;20942;-81
2023/02/08 20:06:43;;;;;;;8.93;5.83;;;5.00;52.70;;;;;;4991825;28;21908;-82
2023/02/08 20:09:30;;;;;;;8.10;6.40;;;4.90;52.60;;;;;;4991294;28;20455;-82
2023/02/08 20:12:21;;;;;;;8.00;6.20;;;4.80;52.90;;;;;;4991786;28;20869;-82
2023/02/08 20:14:57;;;;;;;8.90;5.80;;;4.80;53.30;;;;;;4988290;28;20572;-82
2023/02/08 20:18:10;;;;;;;8.60;6.50;;;4.90;53.20;;;;;;4969445;28;20932;-80
2023/02/08 20:21:09;;;;;;;11.00;7.20;;;4.90;53.20;;;;;;4982778;28;20443;-82
2023/02/08 20:24:34;;;;;;;7.67;5.90;;;5.00;53.20;;;;;;4962715;28;20493;-82
2023/02/08 20:34:54;;;;;;;9.47;7.00;;;4.90;54.80;;;;;;4981117;28;20566;-82
2023/02/08 20:38:12;;;;;;;7.57;6.20;;;4.90;54.70;;;;;;4992705;28;20586;-80
2023/02/08 20:41:32;;;;;;;8.97;6.20;;;4.70;54.40;;;;;;4971516;28;20455;-81
2023/02/08 20:44:30;;;;;;;7.80;6.30;;;4.80;54.40;;;;;;4977134;23;20498;-80
2023/02/08 20:47:44;;;;;;;11.00;6.30;;;4.50;54.60;;;;;;4952789;28;20471;-81
2023/02/08 20:57:42;;;;;;;10.10;7.50;;;4.60;54.90;;;;;;4969206;28;20470;-82
2023/02/08 21:00:29;;;;;;;9.00;5.40;;;4.70;54.60;;;;;;4941420;28;20451;-80
2023/02/08 21:03:21;;;;;;;8.70;6.87;;;4.70;54.70;;;;;;4969044;28;20488;-81
2023/02/08 21:06:47;;;;;;;10.83;7.07;;;4.70;54.80;;;;;;4911034;29;20450;-81
2023/02/08 21:10:17;;;;;;;9.00;6.63;;;4.70;55.20;;;;;;4920671;29;20449;-81
2023/02/08 21:13:43;;;;;;;10.30;6.90;;;4.40;55.00;;;;;;4929063;29;20485;-81
2023/02/08 21:17:35;;;;;;;8.90;6.10;;;4.60;55.30;;;;;;4916909;29;20497;-79
2023/02/08 21:20:43;;;;;;;9.30;6.33;;;4.60;55.10;;;;;;4933179;29;20489;-80
2023/02/08 21:23:43;;;;;;;8.07;6.00;;;4.40;55.80;;;;;;4906792;29;20485;-81
2023/02/08 21:26:45;;;;;;;10.30;7.03;;;4.40;55.50;;;;;;4911181;29;20422;-81
2023/02/08 21:29:55;;;;;;;8.03;6.67;;;4.50;55.40;;;;;;4921970;29;20501;-81
2023/02/08 21:32:40;;;;;;;9.83;6.33;;;4.60;55.60;;;;;;4907625;29;20476;-83
2023/02/08 21:35:14;;;;;;;9.53;6.60;;;4.50;55.40;;;;;;4906163;29;20488;-82
2023/02/08 21:38:21;;;;;;;;;;;;;;;;;;;;;
2023/02/08 21:41:48;;;;;;;10.50;6.87;;;4.40;55.40;;;;;;4866062;29;20442;-83
2023/02/08 21:44:47;;;;;;;8.57;6.30;;;4.40;55.80;;;;;;4918087;29;20513;-83
2023/02/08 21:56:03;;;;;;;;;;;;;;;;;;;;;
2023/02/08 21:59:16;;;;;;;7.57;6.53;;;4.40;57.40;;;;;;4799939;29;21112;-81
2023/02/08 22:09:40;;;;;;;;;;;;;;;;;;;;;
2023/02/08 22:12:57;;;;;;;10.63;7.47;;;4.10;57.80;;;;;;4815327;29;20444;-83
2023/02/08 22:23:59;;;;;;;8.83;5.60;;;4.20;58.40;;;;;;4931317;23;20706;-82
2023/02/08 22:27:34;;;;;;;;;;;;;;;;;;;;;
2023/02/08 22:30:44;;;;;;;8.57;5.80;;;4.20;57.90;;;;;;4929234;28;20512;-81
2023/02/08 22:33:28;;;;;;;10.07;6.00;;;4.00;58.50;;;;;;4962752;28;20612;-80
2023/02/08 22:36:01;;;;;;;12.30;6.80;;;3.90;59.20;;;;;;4958731;28;20479;-80
2023/02/08 22:38:56;;;;;;;8.20;6.50;;;3.80;59.70;;;;;;4948837;28;20456;-81
2023/02/08 22:41:32;;;;;;;7.77;6.00;;;3.90;60.20;;;;;;4927991;28;20464;-82
2023/02/08 22:44:36;;;;;;;6.90;5.63;;;4.00;60.30;;;;;;4943514;28;20504;-80
2023/02/08 22:47:40;;;;;;;8.97;6.00;;;4.10;61.00;;;;;;4944896;28;20559;-82
2023/02/08 22:50:17;;;;;;;8.57;6.67;;;4.10;59.80;;;;;;4949666;28;20483;-80